createdAt,value
2023-02-06T00:00:10.941Z,36.63
2023-02-06T00:03:14.167Z,34.35
2023-02-06T00:06:17.061Z,32.28
2023-02-06T00:09:19.690Z,28.87
2023-02-06T00:12:22.261Z,32.10
2023-02-06T00:15:25.583Z,24.13
2023-02-06T00:18:29.240Z,25.42
2023-02-06T00:21:32.136Z,29.77
2023-02-06T00:24:34.794Z,28.63
2023-02-06T00:27:38.570Z,30.80
2023-02-06T00:30:41.408Z,29.33
2023-02-06T00:33:44.095Z,27.42
2023-02-06T00:36:46.702Z,30.65
2023-02-06T00:39:50.565Z,29.93
2023-02-06T00:42:53.861Z,32.27
2023-02-06T00:45:57.830Z,32.38
2023-02-06T00:49:03.102Z,29.45
2023-02-06T00:52:06.565Z,28.88
2023-02-06T00:55:09.137Z,32.33
2023-02-06T00:58:13.215Z,29.57
2023-02-06T01:01:19.656Z,29.50
2023-02-06T01:04:22.653Z,26.27
2023-02-06T01:07:25.256Z,28.08
2023-02-06T01:10:29.119Z,28.73
2023-02-06T01:13:32.596Z,24.33
2023-02-06T01:16:35.190Z,28.08
2023-02-06T01:19:39.260Z,24.90
2023-02-06T01:22:41.965Z,25.05
2023-02-06T01:25:45.653Z,25.83
2023-02-06T01:28:50.187Z,22.60
2023-02-06T01:31:52.919Z,24.13
2023-02-06T01:34:56.068Z,21.80
2023-02-06T01:37:58.736Z,21.58
2023-02-06T01:41:02.016Z,21.87
2023-02-06T01:44:22.542Z,22.93
2023-02-06T01:47:25.128Z,21.25
2023-02-06T01:50:30.749Z,19.10
2023-02-06T01:53:35.958Z,18.98
2023-02-06T01:56:44.966Z,19.50
2023-02-06T01:59:52.623Z,19.13
2023-02-06T02:02:55.482Z,18.50
2023-02-06T02:06:01.519Z,17.45
2023-02-06T02:09:07.621Z,17.50
2023-02-06T02:12:11.508Z,21.17
2023-02-06T02:15:14.276Z,21.73
2023-02-06T02:18:25.845Z,18.13
2023-02-06T02:22:05.979Z,17.27
2023-02-06T02:25:32.919Z,18.20
2023-02-06T02:29:06.865Z,16.20
2023-02-06T02:32:19.323Z,15.43
2023-02-06T02:35:31.230Z,18.38
2023-02-06T02:39:13.724Z,20.33
2023-02-06T02:42:27.080Z,15.90
2023-02-06T02:45:48.243Z,18.10
2023-02-06T02:48:54.205Z,16.57
2023-02-06T02:51:59.402Z,17.05
2023-02-06T02:55:15.059Z,15.05
2023-02-06T02:58:26.690Z,16.35
2023-02-06T03:01:52.182Z,15.87
2023-02-06T03:04:59.699Z,15.53
2023-02-06T03:08:22.022Z,16.63
2023-02-06T03:11:25.771Z,17.50
2023-02-06T03:14:43.977Z,22.83
2023-02-06T03:18:03.977Z,17.17
2023-02-06T03:21:11.054Z,17.53
2023-02-06T03:24:17.457Z,15.55
2023-02-06T03:27:23.007Z,16.98
2023-02-06T03:30:30.026Z,15.20
2023-02-06T03:33:39.933Z,17.13
2023-02-06T03:36:42.732Z,19.43
2023-02-06T03:39:45.609Z,18.10
2023-02-06T03:42:53.612Z,20.33
2023-02-06T03:46:03.451Z,20.50
2023-02-06T03:49:10.436Z,20.40
2023-02-06T03:52:19.611Z,16.93
2023-02-06T03:55:24.383Z,19.17
2023-02-06T03:58:27.834Z,18.92
2023-02-06T04:01:30.548Z,19.35
2023-02-06T04:04:39.279Z,18.57
2023-02-06T04:07:43.009Z,19.23
2023-02-06T04:10:46.243Z,20.23
2023-02-06T04:13:48.827Z,25.17
2023-02-06T04:16:52.273Z,20.83
2023-02-06T04:19:55.875Z,16.20
2023-02-06T04:23:00.076Z,19.30
2023-02-06T04:26:03.632Z,23.52
2023-02-06T04:29:06.543Z,18.27
2023-02-06T04:32:09.990Z,16.00
2023-02-06T04:35:12.562Z,20.93
2023-02-06T04:38:15.182Z,18.70
2023-02-06T04:41:18.392Z,18.13
2023-02-06T04:44:21.819Z,18.33
2023-02-06T04:47:25.364Z,15.52
2023-02-06T04:50:31.454Z,22.53
2023-02-06T04:53:34.988Z,17.50
2023-02-06T04:56:38.483Z,18.08
2023-02-06T04:59:41.051Z,17.45
2023-02-06T05:02:43.689Z,19.95
2023-02-06T05:05:46.376Z,17.43
2023-02-06T05:08:48.867Z,16.60
2023-02-06T05:11:51.561Z,16.60
2023-02-06T05:14:55.498Z,18.98
2023-02-06T05:17:58.804Z,18.95
2023-02-06T05:21:04.397Z,20.73
2023-02-06T05:24:07.130Z,16.87
2023-02-06T05:27:09.769Z,18.90
2023-02-06T05:30:14.220Z,21.65
2023-02-06T05:33:18.979Z,21.27
2023-02-06T05:36:22.861Z,26.67
2023-02-06T05:39:25.625Z,21.03
2023-02-06T05:42:28.403Z,21.98
2023-02-06T05:45:31.052Z,21.70
2023-02-06T05:48:35.030Z,19.23
2023-02-06T05:51:37.796Z,23.47
2023-02-06T05:54:40.503Z,21.50
2023-02-06T05:57:44.759Z,16.42
2023-02-06T06:00:48.470Z,17.20
2023-02-06T06:03:52.265Z,15.68
2023-02-06T06:06:54.970Z,18.67
2023-02-06T06:09:58.567Z,21.13
2023-02-06T06:13:01.259Z,15.00
2023-02-06T06:16:04.416Z,15.88
2023-02-06T06:19:07.276Z,17.27
2023-02-06T06:22:11.538Z,16.23
2023-02-06T06:25:17.432Z,15.23
2023-02-06T06:28:21.088Z,15.52
2023-02-06T06:31:24.644Z,15.40
2023-02-06T06:34:28.051Z,15.75
2023-02-06T06:37:31.454Z,13.97
2023-02-06T06:40:35.067Z,16.90
2023-02-06T06:43:37.901Z,15.90
2023-02-06T06:46:42.393Z,43.88
2023-02-06T06:49:49.440Z,16.92
2023-02-06T06:52:52.137Z,13.10
2023-02-06T06:55:55.004Z,18.17
2023-02-06T06:58:59.575Z,20.48
2023-02-06T07:02:02.907Z,23.70
2023-02-06T07:05:07.528Z,21.08
2023-02-06T07:08:10.867Z,17.07
2023-02-06T07:11:15.278Z,17.15
2023-02-06T07:14:18.469Z,17.33
2023-02-06T07:17:21.314Z,21.02
2023-02-06T07:20:24.447Z,17.13
2023-02-06T07:23:28.588Z,19.27
2023-02-06T07:26:31.613Z,18.93
2023-02-06T07:29:35.911Z,20.48
2023-02-06T07:32:38.913Z,20.90
2023-02-06T07:35:42.105Z,21.27
2023-02-06T07:38:45.564Z,18.17
2023-02-06T07:41:50.452Z,20.67
2023-02-06T07:44:55.999Z,20.45
2023-02-06T07:47:59.318Z,23.70
2023-02-06T07:51:08.809Z,17.05
2023-02-06T07:55:09.640Z,18.23
2023-02-06T07:58:19.839Z,18.03
2023-02-06T08:01:23.795Z,18.05
2023-02-06T08:04:29.543Z,22.25
2023-02-06T08:07:32.500Z,15.07
2023-02-06T08:10:38.962Z,19.60
2023-02-06T08:13:43.037Z,18.17
2023-02-06T08:16:46.382Z,18.73
2023-02-06T08:19:51.532Z,16.83
2023-02-06T08:22:54.766Z,16.48
2023-02-06T08:26:13.691Z,13.73
2023-02-06T08:29:16.744Z,14.50
2023-02-06T08:32:25.751Z,13.90
2023-02-06T08:35:41.528Z,19.40
2023-02-06T08:39:01.053Z,16.42
2023-02-06T08:42:11.266Z,15.23
2023-02-06T08:45:55.665Z,15.90
2023-02-06T08:50:15.698Z,21.50
2023-02-06T08:53:30.296Z,16.40
2023-02-06T08:56:35.213Z,18.30
2023-02-06T08:59:38.731Z,16.50
2023-02-06T09:02:44.818Z,16.90
2023-02-06T09:05:52.677Z,17.35
2023-02-06T09:09:00.343Z,15.02
2023-02-06T09:12:04.458Z,17.60
2023-02-06T09:15:08.231Z,15.03
2023-02-06T09:18:12.279Z,15.80
2023-02-06T09:21:22.508Z,16.90
2023-02-06T09:24:27.478Z,12.07
2023-02-06T09:27:30.633Z,14.95
2023-02-06T09:30:33.820Z,16.57
2023-02-06T09:33:38.606Z,16.47
2023-02-06T09:36:41.686Z,17.20
2023-02-06T09:39:47.652Z,16.27
2023-02-06T09:42:53.731Z,18.40
2023-02-06T09:46:02.387Z,16.90
2023-02-06T09:49:20.395Z,22.40
2023-02-06T09:52:59.132Z,13.80
2023-02-06T09:56:28.219Z,17.80
2023-02-06T09:59:49.663Z,18.85
2023-02-06T10:03:25.938Z,16.73
2023-02-06T10:06:41.192Z,13.57
2023-02-06T10:09:52.834Z,19.52
2023-02-06T10:13:20.838Z,19.15
2023-02-06T10:16:36.390Z,14.48
2023-02-06T10:19:54.390Z,12.80
2023-02-06T10:22:57.881Z,18.87
2023-02-06T10:26:23.532Z,15.77
2023-02-06T10:29:50.879Z,14.40
2023-02-06T10:33:25.673Z,13.15
2023-02-06T10:37:02.703Z,14.13
2023-02-06T10:41:08.987Z,14.07
2023-02-06T10:44:53.012Z,28.38
2023-02-06T10:48:22.739Z,14.52
2023-02-06T10:52:01.691Z,13.27
2023-02-06T10:55:49.957Z,12.00
2023-02-06T10:59:05.979Z,14.40
2023-02-06T11:02:26.935Z,13.32
2023-02-06T11:05:32.313Z,12.15
2023-02-06T11:08:41.095Z,63.00
2023-02-06T11:11:49.731Z,12.43
2023-02-06T11:14:55.872Z,10.53
2023-02-06T11:18:07.031Z,11.00
2023-02-06T11:21:13.112Z,12.30
2023-02-06T11:24:17.845Z,13.15
2023-02-06T11:27:21.061Z,12.53
2023-02-06T11:30:33.694Z,12.27
2023-02-06T11:33:45.712Z,13.98
2023-02-06T11:36:53.437Z,15.02
2023-02-06T11:40:17.691Z,14.13
2023-02-06T11:43:23.986Z,12.17
2023-02-06T11:46:37.425Z,12.17
2023-02-06T11:49:40.682Z,12.68
2023-02-06T11:52:47.178Z,12.27
2023-02-06T11:56:06.733Z,14.38
2023-02-06T11:59:24.381Z,11.53
2023-02-06T12:02:40.574Z,13.87
2023-02-06T12:06:26.014Z,10.35
2023-02-06T12:09:49.865Z,15.65
2023-02-06T12:13:46.776Z,13.32
2023-02-06T12:16:53.385Z,14.60
2023-02-06T12:20:26.985Z,11.57
2023-02-06T12:23:53.602Z,12.05
2023-02-06T12:27:00.092Z,12.30
2023-02-06T12:30:44.317Z,13.07
2023-02-06T12:33:56.241Z,12.93
2023-02-06T12:37:18.529Z,13.07
2023-02-06T12:40:41.466Z,11.65
2023-02-06T12:43:56.320Z,10.93
2023-02-06T12:47:02.241Z,11.80
2023-02-06T12:50:40.144Z,13.10
2023-02-06T12:54:37.501Z,13.13
2023-02-06T12:57:55.109Z,11.23
2023-02-06T13:01:35.838Z,12.35
2023-02-06T13:04:54.937Z,12.13
2023-02-06T13:08:11.037Z,14.03
2023-02-06T13:11:28.797Z,10.63
2023-02-06T13:14:37.511Z,11.82
2023-02-06T13:17:43.062Z,12.15
2023-02-06T13:21:25.332Z,10.73
2023-02-06T13:24:33.092Z,12.67
2023-02-06T13:27:49.077Z,11.47
2023-02-06T13:30:58.732Z,12.00
2023-02-06T13:34:06.010Z,16.25
2023-02-06T13:37:42.549Z,12.82
2023-02-06T13:40:45.446Z,13.67
2023-02-06T13:43:55.554Z,12.00
2023-02-06T13:47:22.380Z,14.73
2023-02-06T13:50:36.557Z,12.50
2023-02-06T13:53:52.530Z,11.20
2023-02-06T13:57:08.568Z,12.67
2023-02-06T14:00:20.270Z,13.87
2023-02-06T14:03:28.585Z,12.07
2023-02-06T14:06:48.157Z,13.43
2023-02-06T14:10:30.236Z,13.43
2023-02-06T14:14:24.148Z,11.80
2023-02-06T14:18:02.052Z,13.53
2023-02-06T14:21:29.519Z,12.88
2023-02-06T14:24:58.641Z,11.70
2023-02-06T14:28:33.948Z,12.35
2023-02-06T14:32:00.846Z,23.83
2023-02-06T14:35:26.387Z,17.33
2023-02-06T14:38:43.959Z,11.02
2023-02-06T14:41:47.616Z,13.90
2023-02-06T14:45:03.841Z,11.35
2023-02-06T14:48:29.102Z,14.37
2023-02-06T14:51:58.358Z,16.80
2023-02-06T14:55:31.279Z,13.63
2023-02-06T14:58:34.848Z,13.10
2023-02-06T15:01:37.979Z,14.90
2023-02-06T15:04:48.042Z,12.07
2023-02-06T15:08:01.846Z,13.53
2023-02-06T15:11:07.080Z,15.25
2023-02-06T15:14:27.185Z,14.75
2023-02-06T15:17:31.746Z,14.77
2023-02-06T15:20:41.490Z,20.97
2023-02-06T15:24:20.875Z,15.63
2023-02-06T15:27:28.318Z,13.85
2023-02-06T15:30:37.502Z,13.63
2023-02-06T15:33:41.447Z,13.35
2023-02-06T15:36:44.278Z,12.73
2023-02-06T15:39:47.556Z,17.03
2023-02-06T15:42:51.453Z,12.93
2023-02-06T15:45:57.084Z,15.75
2023-02-06T15:48:59.892Z,14.68
2023-02-06T15:52:04.869Z,15.03
2023-02-06T15:55:25.763Z,15.30
2023-02-06T15:58:35.212Z,16.92
2023-02-06T16:01:42.227Z,13.70
2023-02-06T16:04:45.816Z,17.23
2023-02-06T16:07:52.229Z,14.17
2023-02-06T16:11:26.442Z,15.57
2023-02-06T16:14:40.978Z,16.23
2023-02-06T16:17:43.756Z,16.67
2023-02-06T16:20:46.804Z,17.85
2023-02-06T16:24:03.338Z,21.47
2023-02-06T16:27:27.892Z,19.43
2023-02-06T16:30:35.095Z,17.88
2023-02-06T16:33:44.356Z,18.75
2023-02-06T16:36:48.651Z,21.40
2023-02-06T16:39:53.270Z,16.23
2023-02-06T16:42:56.001Z,19.33
2023-02-06T16:46:02.358Z,18.42
2023-02-06T16:49:13.963Z,17.92
2023-02-06T16:52:25.866Z,17.92
2023-02-06T16:55:29.282Z,17.30
2023-02-06T16:58:34.937Z,19.07
2023-02-06T17:01:37.867Z,20.77
2023-02-06T17:04:41.680Z,130.05
2023-02-06T17:07:45.428Z,31.88
2023-02-06T17:10:48.370Z,27.77
2023-02-06T17:13:51.076Z,25.33
2023-02-06T17:16:55.343Z,27.73
2023-02-06T17:19:58.750Z,23.48
2023-02-06T17:23:03.110Z,23.75
2023-02-06T17:26:10.286Z,24.23
2023-02-06T17:29:14.419Z,26.67
2023-02-06T17:32:22.222Z,26.25
2023-02-06T17:35:25.407Z,27.35
2023-02-06T17:38:28.094Z,29.70
2023-02-06T17:41:31.377Z,30.93
2023-02-06T17:44:33.930Z,32.40
2023-02-06T17:47:36.722Z,26.95
2023-02-06T17:50:41.605Z,32.78
2023-02-06T17:53:45.910Z,33.30
2023-02-06T17:56:49.241Z,33.97
2023-02-06T17:59:53.745Z,35.70
2023-02-06T18:02:59.300Z,37.60
2023-02-06T18:06:02.816Z,40.72
2023-02-06T18:09:05.945Z,45.50
2023-02-06T18:12:09.961Z,36.77
2023-02-06T18:15:14.072Z,31.03
2023-02-06T18:18:16.772Z,33.83
2023-02-06T18:21:20.903Z,34.13
2023-02-06T18:24:23.796Z,30.00
2023-02-06T18:27:27.320Z,28.97
2023-02-06T18:30:30.975Z,32.00
2023-02-06T18:33:36.047Z,30.83
2023-02-06T18:36:38.759Z,37.38
2023-02-06T18:39:42.428Z,43.95
2023-02-06T18:42:53.520Z,41.53
2023-02-06T18:45:57.356Z,44.57
2023-02-06T18:49:00.790Z,49.95
2023-02-06T18:52:06.859Z,43.08
2023-02-06T18:55:10.554Z,42.22
2023-02-06T18:58:13.492Z,44.67
2023-02-06T19:01:20.928Z,35.40
2023-02-06T19:04:24.855Z,44.97
2023-02-06T19:07:28.746Z,38.00
2023-02-06T19:10:31.807Z,37.92
2023-02-06T19:13:34.807Z,35.63
2023-02-06T19:16:38.710Z,36.97
2023-02-06T19:19:41.518Z,39.03
2023-02-06T19:22:44.539Z,40.33
2023-02-06T19:25:48.317Z,37.25
2023-02-06T19:28:52.078Z,39.23
2023-02-06T19:31:54.890Z,39.20
2023-02-06T19:34:59.704Z,40.15
2023-02-06T19:38:03.542Z,39.47
2023-02-06T19:41:15.947Z,41.22
2023-02-06T19:44:19.056Z,36.43
2023-02-06T19:47:22.568Z,36.97
2023-02-06T19:50:25.500Z,37.28
2023-02-06T19:53:29.813Z,33.72
2023-02-06T19:56:40.690Z,28.60
2023-02-06T19:59:43.604Z,31.87
2023-02-06T20:02:46.458Z,27.77
2023-02-06T20:05:51.052Z,30.80
2023-02-06T20:08:54.128Z,31.33
2023-02-06T20:11:57.658Z,26.05
2023-02-06T20:15:01.698Z,27.27
2023-02-06T20:18:06.292Z,27.83
2023-02-06T20:21:27.941Z,27.00
2023-02-06T20:24:32.541Z,32.42
2023-02-06T20:27:35.381Z,27.27
2023-02-06T20:30:38.647Z,25.80
2023-02-06T20:33:42.967Z,28.90
2023-02-06T20:36:46.422Z,28.15
2023-02-06T20:39:49.548Z,26.25
2023-02-06T20:42:53.470Z,27.48
2023-02-06T20:45:57.051Z,28.73
2023-02-06T20:49:02.605Z,27.97
2023-02-06T20:52:06.631Z,29.73
2023-02-06T20:55:09.803Z,44.30
2023-02-06T20:58:13.764Z,32.22
2023-02-06T21:01:19.335Z,36.20
2023-02-06T21:04:22.942Z,39.17
2023-02-06T21:07:25.870Z,42.75
2023-02-06T21:10:30.734Z,43.92
2023-02-06T21:13:34.512Z,46.30
2023-02-06T21:16:38.379Z,45.67
2023-02-06T21:19:41.510Z,43.70
2023-02-06T21:22:44.944Z,44.78
2023-02-06T21:25:55.548Z,26.02
2023-02-06T21:28:59.564Z,41.95
2023-02-06T21:32:13.227Z,44.13
2023-02-06T21:35:17.594Z,42.47
2023-02-06T21:38:21.066Z,40.50
2023-02-06T21:41:24.157Z,34.60
2023-02-06T21:44:27.046Z,34.00
2023-02-06T21:47:30.448Z,36.47
2023-02-06T21:50:36.844Z,38.17
2023-02-06T21:53:40.158Z,41.42
2023-02-06T21:56:43.879Z,45.67
2023-02-06T21:59:46.516Z,42.38
2023-02-06T22:02:50.127Z,44.73
2023-02-06T22:05:54.535Z,44.80
2023-02-06T22:09:05.271Z,42.15
2023-02-06T22:12:08.801Z,44.67
2023-02-06T22:15:11.589Z,42.83
2023-02-06T22:18:15.039Z,47.00
2023-02-06T22:21:21.295Z,41.53
2023-02-06T22:24:24.635Z,44.85
2023-02-06T22:27:30.656Z,43.38
2023-02-06T22:30:33.414Z,43.05
2023-02-06T22:33:37.721Z,46.67
2023-02-06T22:36:41.054Z,45.07
2023-02-06T22:39:43.633Z,46.17
2023-02-06T22:42:47.057Z,49.47
2023-02-06T22:45:49.923Z,52.22
2023-02-06T22:48:54.434Z,49.77
2023-02-06T22:51:58.839Z,51.40
2023-02-06T22:55:04.236Z,48.17
2023-02-06T22:58:06.867Z,47.92
2023-02-06T23:01:09.963Z,44.67
2023-02-06T23:04:16.083Z,46.77
2023-02-06T23:07:18.679Z,50.13
2023-02-06T23:10:21.392Z,48.55
2023-02-06T23:13:24.022Z,47.83
2023-02-06T23:16:29.793Z,47.13
2023-02-06T23:19:32.496Z,55.33
2023-02-06T23:22:36.104Z,51.77
2023-02-06T23:25:44.605Z,48.67
2023-02-06T23:28:47.389Z,56.60
2023-02-06T23:31:50.788Z,51.40
2023-02-06T23:34:54.136Z,55.97
2023-02-06T23:37:57.668Z,58.30
2023-02-06T23:41:15.541Z,57.83
2023-02-06T23:44:19.174Z,59.83
2023-02-06T23:47:21.791Z,62.97
2023-02-06T23:50:26.264Z,57.77
2023-02-06T23:53:30.085Z,60.17
2023-02-06T23:56:33.220Z,58.08
2023-02-06T23:59:36.703Z,46.80
